This is the latest recevied weather packets stored in our database for station/object KE0PRS. If no packets are shown the sender has not sent any weather packets the latest 10 day(s).
| Time | Temp. | Humidity | Pressure | Rain* | Wind** | Luminosity | Snow |
|---|---|---|---|---|---|---|---|
| 1787843913 | 25° C | 79% | 1022 hPa | 0 mm | - | 421 W/m² | - |
| 1787843608 | 24.44° C | 80% | 1022.2 hPa | 0 mm | - | 321 W/m² | - |
| 1787843305 | 24.44° C | 82% | 1022.3 hPa | 0 mm | - | 289 W/m² | - |
| 1787842700 | 23.33° C | 88% | 1022.2 hPa | 0 mm | - | 222 W/m² | - |
| 1787842396 | 23.33° C | 90% | 1022.4 hPa | 0 mm | - | 174 W/m² | - |
| 1787842095 | 22.78° C | 91% | 1022.5 hPa | 0 mm | - | 220 W/m² | - |
| 1787841791 | 22.78° C | 94% | 1022.5 hPa | 0 mm | - | 194 W/m² | - |
| 1787841486 | 22.22° C | 94% | 1022 hPa | 0 mm | - | 229 W/m² | - |
| 1787841185 | 21.67° C | 95% | 1022 hPa | 0 mm | - | 205 W/m² | - |
| 1787840880 | 21.67° C | 95% | 1021.9 hPa | 0 mm | - | 175 W/m² | - |
| 1787840575 | 21.67° C | 95% | 1022 hPa | 0 mm | - | 153 W/m² | - |
| 1787840271 | 21.67° C | 95% | 1022 hPa | 0 mm | - | 149 W/m² | - |
| 1787839970 | 21.11° C | 95% | 1022.3 hPa | 0 mm | - | 140 W/m² | - |
| 1787839665 | 21.11° C | 95% | 1022.2 hPa | 0 mm | - | 126 W/m² | - |
| 1787839360 | 21.11° C | 95% | 1022.3 hPa | 0 mm | - | 117 W/m² | - |
| 1787839054 | 21.11° C | 95% | 1022.3 hPa | 0 mm | - | 115 W/m² | - |
| 1787838753 | 21.11° C | 95% | 1022.2 hPa | 0 mm | - | 100 W/m² | - |
| 1787838452 | 21.11° C | 94% | 1022 hPa | 0 mm | - | 87 W/m² | - |
| 1787838152 | 21.11° C | 94% | 1022.2 hPa | 0 mm | - | 75 W/m² | - |
| 1787837847 | 21.11° C | 94% | 1022.5 hPa | 0 mm | - | 65 W/m² | - |
| 1787837541 | 21.11° C | 94% | 1022.5 hPa | 0 mm | - | 56 W/m² | - |
| 1787837241 | 21.11° C | 94% | 1022.3 hPa | 0 mm | - | 50 W/m² | - |
| 1787836940 | 21.11° C | 93% | 1022.5 hPa | 0 mm | - | 65 W/m² | - |
| 1787836635 | 21.11° C | 93% | 1022.6 hPa | 0 mm | - | 78 W/m² | - |
| 1787836335 | 20.56° C | 93% | 1022.4 hPa | 0 mm | - | 68 W/m² | - |
* Rain latest hour (hover to see other rain measurements)
** Current wind speed in m/s (hover to see current wind gust speed)